Time;durP1;ratioP1;P1;durP2;ratioP2;P2;SDS_P1;SDS_P2;PMS_P1;PMS_P2;Temp;Humidity;BMP_temperature;BMP_pressure;BME280_temperature;BME280_humidity;BME280_pressure;Samples;Min_cycle;Max_cycle;Signal;HPM_P1;HPM_P2
2024/02/19 02:30:16;;;;;;;15.95;3.63;;;9.70;99.90;;;;;;4084569;28;20054;-71
2024/02/19 02:32:16;;;;;;;18.80;3.50;;;9.80;99.90;;;;;;4079432;28;20040;-72
2024/02/19 02:34:17;;;;;;;21.80;3.90;;;9.70;99.90;;;;;;4094709;28;20404;-71
2024/02/19 02:36:17;;;;;;;25.27;3.72;;;9.70;99.90;;;;;;4093852;28;20523;-72
2024/02/19 02:38:18;;;;;;;20.35;3.67;;;9.70;99.90;;;;;;4096754;28;20065;-72
2024/02/19 02:40:19;;;;;;;13.02;2.88;;;9.70;99.90;;;;;;4079053;29;20123;-71
2024/02/19 02:42:19;;;;;;;17.42;3.10;;;9.70;99.90;;;;;;4094435;29;20401;-71
2024/02/19 02:44:20;;;;;;;17.25;3.90;;;9.70;99.90;;;;;;4107744;28;20045;-71
2024/02/19 02:46:20;;;;;;;14.27;2.97;;;9.70;99.90;;;;;;4097012;28;20058;-72
2024/02/19 02:48:22;;;;;;;13.00;2.58;;;9.80;99.90;;;;;;4096882;28;20035;-71
2024/02/19 02:50:23;;;;;;;19.52;3.75;;;9.70;99.90;;;;;;4095248;28;20070;-72
2024/02/19 02:52:23;;;;;;;19.08;3.75;;;9.80;99.90;;;;;;4095824;29;20397;-72
2024/02/19 02:54:24;;;;;;;20.10;3.38;;;9.80;99.90;;;;;;4097329;28;20446;-72
2024/02/19 02:56:25;;;;;;;18.63;3.25;;;9.80;99.90;;;;;;4105590;28;20420;-71
2024/02/19 02:58:25;;;;;;;11.93;2.40;;;9.80;99.90;;;;;;4096908;28;20039;-71
2024/02/19 03:00:26;;;;;;;17.73;3.00;;;9.80;99.90;;;;;;4096480;28;20046;-72
2024/02/19 03:02:27;;;;;;;13.35;2.90;;;9.80;99.90;;;;;;4097556;28;20038;-71
2024/02/19 03:04:27;;;;;;;12.63;2.53;;;9.80;99.90;;;;;;4097527;28;20054;-72
2024/02/19 03:06:28;;;;;;;23.35;4.03;;;9.80;99.90;;;;;;4096519;28;20082;-72
2024/02/19 03:08:28;;;;;;;22.95;3.40;;;9.80;99.90;;;;;;4097768;28;20405;-71
2024/02/19 03:10:29;;;;;;;17.50;3.58;;;9.80;99.90;;;;;;4097361;28;20110;-71
2024/02/19 03:12:29;;;;;;;18.25;3.65;;;9.90;99.90;;;;;;4097984;28;20031;-72
2024/02/19 03:14:30;;;;;;;18.15;3.55;;;9.80;99.90;;;;;;4097422;28;20059;-72
2024/02/19 03:16:31;;;;;;;11.52;3.05;;;9.80;99.90;;;;;;4097032;28;20094;-71
2024/02/19 03:18:35;;;;;;;11.88;2.60;;;9.80;99.90;;;;;;4096506;28;20114;-72
2024/02/19 03:20:36;;;;;;;13.27;3.25;;;9.90;99.90;;;;;;4096530;28;20043;-71
2024/02/19 03:22:37;;;;;;;12.70;2.92;;;9.80;99.90;;;;;;4095855;28;20035;-72
2024/02/19 03:24:38;;;;;;;13.65;2.67;;;9.80;99.90;;;;;;4097330;28;20074;-70
2024/02/19 03:26:38;;;;;;;12.95;2.83;;;9.80;99.90;;;;;;4095509;28;20039;-71
2024/02/19 03:28:39;;;;;;;10.73;2.35;;;9.80;99.90;;;;;;4100613;28;21076;-71
2024/02/19 03:30:39;;;;;;;9.38;2.05;;;9.80;99.90;;;;;;4094234;28;20491;-71
2024/02/19 03:32:40;;;;;;;6.72;1.77;;;9.90;99.90;;;;;;4095158;28;20489;-71
2024/02/19 03:34:40;;;;;;;13.13;2.63;;;9.90;99.90;;;;;;4101658;28;20073;-70
2024/02/19 03:36:49;;;;;;;13.05;2.55;;;9.90;99.90;;;;;;4096429;28;20560;-71
2024/02/19 03:38:49;;;;;;;10.80;2.33;;;9.90;99.90;;;;;;4092677;28;20050;-70
2024/02/19 03:40:50;;;;;;;12.95;2.72;;;9.90;99.90;;;;;;4090057;29;20031;-70
2024/02/19 03:42:51;;;;;;;11.48;2.38;;;9.90;99.90;;;;;;4097218;28;20036;-70
2024/02/19 03:44:51;;;;;;;17.23;2.97;;;9.90;99.90;;;;;;4097213;28;20102;-67
2024/02/19 03:46:52;;;;;;;12.88;2.80;;;9.90;99.90;;;;;;4079250;29;20099;-67
2024/02/19 03:48:54;;;;;;;11.82;2.65;;;9.90;99.90;;;;;;4093675;28;20031;-69
2024/02/19 03:50:55;;;;;;;11.77;2.55;;;9.90;99.90;;;;;;4095610;28;20820;-69
2024/02/19 03:52:55;;;;;;;6.78;1.90;;;9.90;99.90;;;;;;4097346;28;20035;-69
2024/02/19 03:54:56;;;;;;;8.57;2.20;;;9.90;99.90;;;;;;4089801;29;20143;-68
2024/02/19 03:56:56;;;;;;;8.63;2.30;;;10.00;99.90;;;;;;4096208;28;20039;-69
2024/02/19 03:58:57;;;;;;;7.47;1.88;;;10.00;99.90;;;;;;4078594;29;20064;-68
2024/02/19 04:00:58;;;;;;;12.18;2.60;;;10.00;99.90;;;;;;4094332;28;20039;-67
2024/02/19 04:02:58;;;;;;;9.55;2.33;;;10.00;99.90;;;;;;4096607;28;20405;-69
2024/02/19 04:04:59;;;;;;;12.10;2.38;;;9.90;99.90;;;;;;4096729;28;20445;-68
2024/02/19 04:06:59;;;;;;;11.45;2.53;;;9.90;99.90;;;;;;4082725;29;20103;-68
2024/02/19 04:09:00;;;;;;;10.43;2.17;;;10.00;99.90;;;;;;4090757;28;20034;-69
2024/02/19 04:11:01;;;;;;;8.48;2.40;;;9.90;99.90;;;;;;4094538;28;20039;-68
2024/02/19 04:13:02;;;;;;;8.70;2.22;;;10.00;99.90;;;;;;4094318;28;20035;-70
2024/02/19 04:15:02;;;;;;;13.98;2.63;;;9.90;99.90;;;;;;4091104;28;20050;-70
2024/02/19 04:17:03;;;;;;;20.83;3.20;;;10.00;99.90;;;;;;4094051;28;20106;-71
2024/02/19 04:19:04;;;;;;;14.10;2.92;;;9.90;99.90;;;;;;4093880;28;20032;-70
2024/02/19 04:21:05;;;;;;;11.20;2.60;;;9.90;99.90;;;;;;4099138;28;20511;-70
2024/02/19 04:23:06;;;;;;;10.30;2.25;;;9.90;99.90;;;;;;4096278;28;20501;-70
2024/02/19 04:25:07;;;;;;;13.40;2.25;;;9.90;99.90;;;;;;4094008;28;20039;-70
2024/02/19 04:27:07;;;;;;;8.13;2.53;;;10.00;99.90;;;;;;4097507;28;20039;-70
2024/02/19 04:29:09;;;;;;;12.05;2.40;;;10.00;99.90;;;;;;4094007;28;20464;-70
2024/02/19 04:31:10;;;;;;;9.73;3.13;;;9.90;99.90;;;;;;4074826;29;20040;-70
2024/02/19 04:33:11;;;;;;;10.70;2.38;;;10.00;99.90;;;;;;4096260;28;20031;-70
2024/02/19 04:35:12;;;;;;;15.10;2.53;;;10.00;99.90;;;;;;4105365;28;20117;-70
2024/02/19 04:37:14;;;;;;;13.55;2.70;;;10.00;99.90;;;;;;4084870;29;20035;-70
2024/02/19 04:39:15;;;;;;;17.15;2.47;;;9.90;99.90;;;;;;4096097;28;20058;-70
2024/02/19 04:41:15;;;;;;;13.32;2.63;;;9.90;99.90;;;;;;4097806;28;20043;-70
2024/02/19 04:43:16;;;;;;;16.17;3.17;;;9.90;99.90;;;;;;4095968;28;20396;-69
2024/02/19 04:45:16;;;;;;;12.32;2.33;;;10.00;99.90;;;;;;4089772;28;20063;-72
2024/02/19 04:47:17;;;;;;;10.38;2.55;;;10.00;99.90;;;;;;4094609;28;20142;-72
2024/02/19 04:49:17;;;;;;;12.60;2.60;;;9.90;99.90;;;;;;4094162;28;20043;-71
2024/02/19 04:51:18;;;;;;;7.43;2.30;;;10.00;99.90;;;;;;4093662;28;20028;-70
2024/02/19 04:53:19;;;;;;;9.05;2.05;;;9.90;99.90;;;;;;4096323;28;20031;-71
2024/02/19 04:55:19;;;;;;;12.55;2.53;;;9.90;99.90;;;;;;4093862;28;20047;-71
2024/02/19 04:57:20;;;;;;;8.55;2.33;;;9.90;99.90;;;;;;4092493;28;20038;-71
2024/02/19 04:59:21;;;;;;;16.50;2.72;;;9.90;99.90;;;;;;4093895;28;20039;-71
2024/02/19 05:01:21;;;;;;;13.43;3.20;;;9.90;99.90;;;;;;4093090;28;20038;-69
2024/02/19 05:03:22;;;;;;;10.35;2.03;;;9.90;99.90;;;;;;4095584;28;20039;-70
2024/02/19 05:05:23;;;;;;;8.70;2.22;;;10.00;99.90;;;;;;4093769;28;20035;-70
2024/02/19 05:07:23;;;;;;;8.55;2.40;;;10.00;99.90;;;;;;4088467;28;20047;-68
2024/02/19 05:09:24;;;;;;;9.88;2.45;;;10.00;99.90;;;;;;4093855;28;20031;-68
2024/02/19 05:11:24;;;;;;;8.35;2.42;;;10.00;99.90;;;;;;4091684;28;20039;-69
2024/02/19 05:13:25;;;;;;;5.25;1.95;;;10.00;99.90;;;;;;4093259;28;20053;-69
2024/02/19 05:15:26;;;;;;;9.02;2.60;;;10.00;99.90;;;;;;4094026;28;20049;-70
2024/02/19 05:17:26;;;;;;;10.40;2.85;;;10.00;99.90;;;;;;4092640;28;20125;-70
2024/02/19 05:19:27;;;;;;;10.68;2.83;;;10.00;99.90;;;;;;4077271;29;20048;-70
2024/02/19 05:21:28;;;;;;;9.35;2.47;;;10.00;99.90;;;;;;4092193;28;20509;-70
2024/02/19 05:23:31;;;;;;;10.88;2.45;;;10.00;99.90;;;;;;4104847;28;20036;-70
2024/02/19 05:25:32;;;;;;;11.20;2.38;;;10.00;99.90;;;;;;4094405;28;20034;-70
2024/02/19 05:27:33;;;;;;;12.15;2.45;;;10.00;99.90;;;;;;4090818;28;20382;-70
2024/02/19 05:29:34;;;;;;;10.02;2.53;;;10.00;99.90;;;;;;4089261;28;20054;-70
2024/02/19 05:31:37;;;;;;;13.00;3.03;;;10.00;99.90;;;;;;4096953;28;20075;-70
2024/02/19 05:33:37;;;;;;;10.18;2.42;;;10.00;99.90;;;;;;4095177;28;20034;-70
2024/02/19 05:35:38;;;;;;;8.45;2.40;;;10.00;99.90;;;;;;4080222;29;20031;-70
2024/02/19 05:37:39;;;;;;;10.63;2.50;;;10.00;99.90;;;;;;4096134;28;20024;-70
2024/02/19 05:39:39;;;;;;;11.02;2.40;;;10.00;99.90;;;;;;4079854;29;20038;-70
2024/02/19 05:41:40;;;;;;;9.30;3.05;;;10.00;99.90;;;;;;4095780;28;20024;-70
2024/02/19 05:43:42;;;;;;;10.40;2.55;;;10.00;99.90;;;;;;4093383;28;20151;-70
2024/02/19 05:45:43;;;;;;;9.48;2.58;;;10.00;99.90;;;;;;4092302;28;20389;-70
2024/02/19 05:47:43;;;;;;;8.00;2.20;;;10.00;99.90;;;;;;4091446;28;20028;-70
2024/02/19 05:49:44;;;;;;;15.95;3.65;;;10.10;99.90;;;;;;4097149;28;20121;-70
2024/02/19 05:51:45;;;;;;;13.88;3.45;;;10.00;99.90;;;;;;4092437;28;20083;-70
2024/02/19 05:53:48;;;;;;;10.48;3.08;;;10.00;99.90;;;;;;4088153;28;20146;-70
2024/02/19 05:55:49;;;;;;;12.68;3.40;;;10.00;99.90;;;;;;4096273;28;20035;-70
2024/02/19 05:57:50;;;;;;;14.02;3.38;;;10.00;99.90;;;;;;4091851;28;20065;-70
2024/02/19 05:59:50;;;;;;;10.32;3.38;;;10.00;99.90;;;;;;4093921;28;20046;-70
2024/02/19 06:01:52;;;;;;;9.93;2.78;;;10.00;99.90;;;;;;4100614;28;20026;-70
2024/02/19 06:03:52;;;;;;;9.90;3.45;;;10.00;99.90;;;;;;4092329;28;20394;-70
2024/02/19 06:05:53;;;;;;;8.15;2.97;;;10.00;99.90;;;;;;4097093;28;20046;-70
2024/02/19 06:07:54;;;;;;;8.80;2.67;;;10.00;99.90;;;;;;4080753;29;20050;-70
2024/02/19 06:09:54;;;;;;;13.25;3.53;;;10.00;99.90;;;;;;4080474;29;20356;-70
2024/02/19 06:11:55;;;;;;;10.30;3.08;;;10.00;99.90;;;;;;4092231;28;20024;-71
2024/02/19 06:13:56;;;;;;;13.20;2.95;;;10.00;99.90;;;;;;4094415;28;20545;-69
2024/02/19 06:15:56;;;;;;;7.90;2.55;;;10.00;99.90;;;;;;4094243;28;20445;-68
2024/02/19 06:17:57;;;;;;;10.52;3.20;;;10.00;99.90;;;;;;4093994;28;20405;-69
2024/02/19 06:19:57;;;;;;;13.82;3.30;;;10.00;99.90;;;;;;4093546;28;20106;-69
2024/02/19 06:21:58;;;;;;;11.27;2.88;;;10.00;99.90;;;;;;4089260;28;20126;-68
2024/02/19 06:23:59;;;;;;;9.02;3.67;;;10.00;99.90;;;;;;4088577;28;20023;-68
2024/02/19 06:26:00;;;;;;;8.93;2.60;;;10.00;99.90;;;;;;4079527;29;20259;-67
2024/02/19 06:28:02;;;;;;;12.80;2.88;;;10.00;99.90;;;;;;4091342;28;20030;-67
2024/02/19 06:30:04;;;;;;;7.37;2.80;;;10.00;99.90;;;;;;4089417;28;20055;-68
2024/02/19 06:32:06;;;;;;;10.05;3.20;;;10.00;99.90;;;;;;4082970;29;20083;-68
2024/02/19 06:34:06;;;;;;;12.38;3.10;;;10.10;99.90;;;;;;4103138;28;20126;-70
2024/02/19 06:36:07;;;;;;;10.23;2.50;;;10.00;99.90;;;;;;4078304;29;20036;-70
2024/02/19 06:38:08;;;;;;;14.68;3.08;;;10.10;99.90;;;;;;4093944;28;20485;-70
2024/02/19 06:40:09;;;;;;;8.88;2.60;;;10.10;99.90;;;;;;4075161;29;20048;-70
2024/02/19 06:42:10;;;;;;;8.57;2.88;;;10.00;99.90;;;;;;4090319;28;20168;-70
2024/02/19 06:44:11;;;;;;;9.02;2.65;;;10.10;99.90;;;;;;4078701;28;20522;-70
2024/02/19 06:46:11;;;;;;;13.07;3.05;;;10.10;99.90;;;;;;4087113;28;20401;-70
2024/02/19 06:48:12;;;;;;;9.98;2.38;;;10.10;99.90;;;;;;4091014;28;20183;-70
2024/02/19 06:50:13;;;;;;;7.03;2.38;;;10.10;99.90;;;;;;4092529;28;20167;-71
2024/02/19 06:52:13;;;;;;;9.88;2.35;;;10.10;99.90;;;;;;4092667;28;20481;-71
2024/02/19 06:54:14;;;;;;;9.00;2.78;;;10.10;99.90;;;;;;4092019;28;20529;-71
2024/02/19 06:56:15;;;;;;;13.10;3.00;;;10.10;99.90;;;;;;4076810;29;20071;-71
2024/02/19 06:58:15;;;;;;;7.55;2.65;;;10.10;99.90;;;;;;4096522;28;20043;-71
2024/02/19 07:00:16;;;;;;;7.40;2.10;;;10.10;99.90;;;;;;4092793;28;20102;-71
2024/02/19 07:02:17;;;;;;;5.68;2.25;;;10.10;99.90;;;;;;4092220;28;20256;-71
2024/02/19 07:04:18;;;;;;;7.72;2.25;;;10.10;99.90;;;;;;4093399;28;20062;-72
2024/02/19 07:06:19;;;;;;;11.55;2.92;;;10.10;99.90;;;;;;4093048;28;20497;-72
2024/02/19 07:08:19;;;;;;;11.90;2.72;;;10.10;99.90;;;;;;4093904;28;20070;-72
2024/02/19 07:10:20;;;;;;;9.73;2.90;;;10.10;99.90;;;;;;4095073;28;20493;-72
2024/02/19 07:12:20;;;;;;;8.40;2.15;;;10.10;99.90;;;;;;4091866;28;20040;-72
2024/02/19 07:14:21;;;;;;;6.97;2.65;;;10.10;99.90;;;;;;4075817;29;20064;-72
2024/02/19 07:16:22;;;;;;;8.50;2.05;;;10.10;99.90;;;;;;4089346;28;20036;-72
2024/02/19 07:18:24;;;;;;;9.20;2.53;;;10.10;99.90;;;;;;4093240;28;20036;-72
2024/02/19 07:20:25;;;;;;;7.63;2.15;;;10.10;99.90;;;;;;4088680;28;20048;-72
2024/02/19 07:22:26;;;;;;;12.07;3.22;;;10.10;99.90;;;;;;4090644;28;20028;-71
2024/02/19 07:24:28;;;;;;;7.38;2.20;;;10.10;99.90;;;;;;4089380;28;20405;-71
2024/02/19 07:26:28;;;;;;;6.20;2.13;;;10.10;99.90;;;;;;4077458;28;20040;-72
2024/02/19 07:28:29;;;;;;;9.55;2.58;;;10.10;99.90;;;;;;4090481;28;20035;-71
2024/02/19 07:30:30;;;;;;;11.52;3.05;;;10.10;99.90;;;;;;4091683;28;20051;-72
2024/02/19 07:32:30;;;;;;;8.50;2.50;;;10.10;99.90;;;;;;4093461;28;20695;-73
2024/02/19 07:34:31;;;;;;;12.77;2.67;;;10.10;99.90;;;;;;4089752;28;20479;-72
2024/02/19 07:36:31;;;;;;;7.28;2.15;;;10.10;99.90;;;;;;4099165;28;20433;-72
2024/02/19 07:38:32;;;;;;;9.38;2.97;;;10.10;99.90;;;;;;4095905;28;20421;-73
2024/02/19 07:40:33;;;;;;;14.55;3.17;;;10.10;99.90;;;;;;4074791;29;20181;-72
2024/02/19 07:42:33;;;;;;;9.80;2.70;;;10.10;99.90;;;;;;4096567;28;20691;-72
2024/02/19 07:44:34;;;;;;;14.13;3.42;;;10.10;99.90;;;;;;4094779;28;20047;-71
2024/02/19 07:46:34;;;;;;;12.73;3.03;;;10.10;99.90;;;;;;4098949;28;20039;-71
2024/02/19 07:48:35;;;;;;;6.78;2.55;;;10.10;99.90;;;;;;4094466;28;20129;-71
2024/02/19 07:50:36;;;;;;;10.18;2.70;;;10.10;99.90;;;;;;4099110;28;20030;-71
2024/02/19 07:52:37;;;;;;;8.80;2.35;;;10.10;99.90;;;;;;4097263;28;20401;-71
2024/02/19 07:54:38;;;;;;;7.25;1.90;;;10.10;99.90;;;;;;4100455;28;20040;-71
2024/02/19 07:56:38;;;;;;;8.82;2.53;;;10.10;99.90;;;;;;4079052;28;20473;-71
2024/02/19 07:58:39;;;;;;;9.73;2.80;;;10.10;99.90;;;;;;4100940;28;20067;-71
2024/02/19 08:00:40;;;;;;;9.40;2.40;;;10.10;99.90;;;;;;4099620;28;20127;-71
2024/02/19 08:02:40;;;;;;;9.18;2.53;;;10.10;99.90;;;;;;4100415;28;20027;-71
2024/02/19 08:04:41;;;;;;;8.98;2.40;;;10.10;99.90;;;;;;4100894;28;20035;-71
2024/02/19 08:06:41;;;;;;;8.40;2.47;;;10.10;99.90;;;;;;4098453;28;20046;-71
2024/02/19 08:08:43;;;;;;;6.85;1.90;;;10.10;99.90;;;;;;4094130;28;20111;-71
2024/02/19 08:10:43;;;;;;;6.18;2.22;;;10.10;99.90;;;;;;4097456;28;20047;-71
2024/02/19 08:12:44;;;;;;;12.43;2.63;;;10.20;99.90;;;;;;4095968;28;20078;-71
2024/02/19 08:14:45;;;;;;;10.98;2.72;;;10.20;99.90;;;;;;4097099;28;20549;-72
2024/02/19 08:16:50;;;;;;;7.47;2.72;;;10.20;99.90;;;;;;4096858;28;20078;-72
2024/02/19 08:18:50;;;;;;;8.02;2.10;;;10.20;99.90;;;;;;4095399;28;20093;-72
2024/02/19 08:20:51;;;;;;;14.75;2.63;;;10.20;99.90;;;;;;4095054;28;20678;-72
2024/02/19 08:22:52;;;;;;;8.75;2.15;;;10.20;99.90;;;;;;4094729;28;20438;-72
2024/02/19 08:24:53;;;;;;;8.50;2.60;;;10.20;99.90;;;;;;4096377;28;20043;-72
2024/02/19 08:26:54;;;;;;;11.85;2.92;;;10.20;99.90;;;;;;4096892;28;20504;-72
2024/02/19 08:28:54;;;;;;;11.63;2.90;;;10.20;99.90;;;;;;4095902;28;20043;-72
2024/02/19 08:30:55;;;;;;;9.27;2.65;;;10.20;99.90;;;;;;4094470;28;20166;-72
2024/02/19 08:32:55;;;;;;;10.70;2.95;;;10.20;99.90;;;;;;4095606;28;20452;-72
2024/02/19 08:34:56;;;;;;;8.48;2.03;;;10.20;99.90;;;;;;4095976;28;20028;-72
2024/02/19 08:36:56;;;;;;;10.35;2.92;;;10.20;99.90;;;;;;4094092;28;20046;-71
2024/02/19 08:38:57;;;;;;;8.43;2.38;;;10.20;99.90;;;;;;4087416;28;20093;-72
2024/02/19 08:40:58;;;;;;;11.50;2.63;;;10.20;99.90;;;;;;4086333;28;20043;-71
2024/02/19 08:42:58;;;;;;;10.43;2.28;;;10.20;99.90;;;;;;4091980;28;20047;-72
2024/02/19 08:44:59;;;;;;;9.52;2.45;;;10.30;99.90;;;;;;4097708;28;20039;-72
2024/02/19 08:47:07;;;;;;;10.85;2.67;;;10.30;99.90;;;;;;4096684;28;20027;-71
2024/02/19 08:49:09;;;;;;;13.15;2.97;;;10.30;99.90;;;;;;4096204;28;20070;-72
2024/02/19 08:51:10;;;;;;;7.20;2.38;;;10.30;99.90;;;;;;4096182;28;20421;-72
2024/02/19 08:53:11;;;;;;;11.77;3.10;;;10.30;99.90;;;;;;4093759;28;20039;-72
2024/02/19 08:55:12;;;;;;;11.98;2.72;;;10.30;99.90;;;;;;4079761;28;20480;-70
2024/02/19 08:57:12;;;;;;;15.25;3.20;;;10.30;99.90;;;;;;4095559;28;20059;-69
2024/02/19 08:59:13;;;;;;;11.23;3.67;;;10.40;99.90;;;;;;4098493;28;20045;-69
2024/02/19 09:01:14;;;;;;;16.80;3.83;;;10.40;99.90;;;;;;4094417;28;20038;-69
2024/02/19 09:03:15;;;;;;;10.63;3.08;;;10.40;99.90;;;;;;4096463;28;20063;-68
2024/02/19 09:05:19;;;;;;;13.73;3.45;;;10.40;99.90;;;;;;4079439;28;20068;-69
2024/02/19 09:07:20;;;;;;;11.32;3.65;;;10.40;99.90;;;;;;4085527;28;20501;-70
2024/02/19 09:09:20;;;;;;;12.30;3.38;;;10.50;99.90;;;;;;4094468;28;20046;-69
2024/02/19 09:11:21;;;;;;;12.43;4.18;;;10.50;99.90;;;;;;4091392;28;20098;-69
2024/02/19 09:13:22;;;;;;;12.10;3.70;;;10.50;99.90;;;;;;4093956;28;21829;-70
2024/02/19 09:15:22;;;;;;;8.07;3.72;;;10.50;99.90;;;;;;4092871;28;20526;-68
2024/02/19 09:17:23;;;;;;;11.85;3.33;;;10.60;99.90;;;;;;4074853;28;20050;-68
2024/02/19 09:19:24;;;;;;;16.35;4.35;;;10.60;99.90;;;;;;4087754;28;20058;-69
2024/02/19 09:21:24;;;;;;;11.93;4.18;;;10.60;99.90;;;;;;4086313;28;20039;-68
2024/02/19 09:23:25;;;;;;;15.00;4.38;;;10.70;99.90;;;;;;4094802;28;20043;-70
2024/02/19 09:25:25;;;;;;;10.65;4.60;;;10.70;99.90;;;;;;4094346;28;20090;-70
2024/02/19 09:27:26;;;;;;;15.77;5.15;;;10.70;99.90;;;;;;4089888;28;20042;-70
2024/02/19 09:29:27;;;;;;;13.70;4.50;;;10.80;99.90;;;;;;4092983;28;20062;-70
2024/02/19 09:31:27;;;;;;;18.55;4.53;;;10.80;99.90;;;;;;4093870;28;20441;-70
2024/02/19 09:33:28;;;;;;;15.38;4.47;;;10.90;99.90;;;;;;4091615;28;20043;-69
2024/02/19 09:35:28;;;;;;;9.02;3.97;;;11.00;99.90;;;;;;4093219;28;20050;-70
2024/02/19 09:37:29;;;;;;;13.13;4.65;;;11.00;99.90;;;;;;4091636;28;20043;-69
2024/02/19 09:39:30;;;;;;;12.27;4.78;;;11.00;99.90;;;;;;4094906;28;20556;-70
2024/02/19 09:41:30;;;;;;;13.50;4.90;;;11.10;99.90;;;;;;4092201;28;20039;-69
2024/02/19 09:43:31;;;;;;;13.90;5.30;;;11.10;99.90;;;;;;4092787;28;20085;-70
2024/02/19 09:45:32;;;;;;;16.63;5.18;;;11.20;99.90;;;;;;4091750;28;20034;-69
2024/02/19 09:47:33;;;;;;;17.95;5.05;;;11.20;99.90;;;;;;4093305;28;20047;-69
2024/02/19 09:49:35;;;;;;;15.57;5.75;;;11.20;99.90;;;;;;4090424;28;20122;-70
2024/02/19 09:51:39;;;;;;;13.63;4.63;;;11.20;99.90;;;;;;4091666;28;20058;-70
2024/02/19 09:53:42;;;;;;;14.18;5.22;;;11.30;99.90;;;;;;4092027;28;20190;-70
2024/02/19 09:55:42;;;;;;;13.77;5.10;;;11.30;99.90;;;;;;4093513;28;20035;-70
2024/02/19 09:57:43;;;;;;;16.02;5.13;;;11.30;99.90;;;;;;4093005;28;20043;-69
2024/02/19 09:59:45;;;;;;;18.20;4.85;;;11.30;99.90;;;;;;4083463;28;20046;-69
2024/02/19 10:01:45;;;;;;;18.05;5.75;;;11.30;99.90;;;;;;4085949;28;20035;-70
2024/02/19 10:03:46;;;;;;;15.90;5.45;;;11.30;99.90;;;;;;4089905;28;20371;-74
2024/02/19 10:05:47;;;;;;;14.25;5.28;;;11.40;99.90;;;;;;4093921;28;20035;-72
2024/02/19 10:07:47;;;;;;;14.18;4.68;;;11.40;99.90;;;;;;4092482;28;20039;-72
2024/02/19 10:09:48;;;;;;;15.98;6.03;;;11.40;99.90;;;;;;4093599;28;20170;-71
2024/02/19 10:11:49;;;;;;;15.52;4.95;;;11.40;99.90;;;;;;4093958;28;20050;-72
2024/02/19 10:13:52;;;;;;;13.20;5.20;;;11.40;99.90;;;;;;4092637;28;20043;-71
2024/02/19 10:15:53;;;;;;;17.30;4.93;;;11.40;99.90;;;;;;4094292;28;20027;-72
2024/02/19 10:17:53;;;;;;;20.35;5.78;;;11.40;99.90;;;;;;4092347;28;20401;-72
2024/02/19 10:20:07;;;;;;;18.02;5.35;;;11.40;99.90;;;;;;4078872;29;21251;-72
2024/02/19 10:22:08;;;;;;;14.15;5.72;;;11.40;99.90;;;;;;4093190;28;20094;-72
2024/02/19 10:24:08;;;;;;;16.38;5.90;;;11.40;99.90;;;;;;4096103;28;20283;-72
2024/02/19 10:26:09;;;;;;;17.50;5.55;;;11.40;99.90;;;;;;4087405;28;20560;-71
2024/02/19 10:28:10;;;;;;;16.63;6.22;;;11.40;99.90;;;;;;4094116;28;20031;-71
2024/02/19 10:30:12;;;;;;;17.75;7.03;;;11.50;99.90;;;;;;4081281;28;20043;-71
2024/02/19 10:32:13;;;;;;;;;;;11.40;99.90;;;;;;4095541;28;20027;-72
2024/02/19 10:34:15;;;;;;;14.55;5.82;;;11.40;99.90;;;;;;4094891;28;19914;-69
2024/02/19 10:36:19;;;;;;;19.70;7.32;;;11.50;99.90;;;;;;4095641;28;20063;-70
2024/02/19 10:38:20;;;;;;;19.20;6.97;;;11.50;99.90;;;;;;4091577;28;20512;-68
2024/02/19 10:40:20;;;;;;;17.65;7.97;;;11.50;99.90;;;;;;4092969;28;20045;-69
2024/02/19 10:42:21;;;;;;;22.77;8.98;;;11.50;99.90;;;;;;4091655;28;20055;-68
2024/02/19 10:44:23;;;;;;;19.38;8.50;;;11.40;99.90;;;;;;4094502;28;20067;-68
2024/02/19 10:46:23;;;;;;;16.77;8.30;;;11.40;99.90;;;;;;4091999;28;20441;-69
2024/02/19 10:48:25;;;;;;;18.23;8.40;;;11.40;99.90;;;;;;4095363;28;20050;-68
2024/02/19 10:50:31;;;;;;;15.80;7.38;;;11.50;99.90;;;;;;4075441;29;20050;-69
2024/02/19 10:52:33;;;;;;;15.63;7.45;;;11.50;99.90;;;;;;4093536;28;20445;-70
2024/02/19 10:54:33;;;;;;;20.02;8.93;;;11.50;99.90;;;;;;4096701;28;20043;-69
2024/02/19 10:56:36;;;;;;;16.77;7.65;;;11.50;99.90;;;;;;4092846;28;20050;-69
2024/02/19 10:58:37;;;;;;;11.98;6.85;;;11.50;99.90;;;;;;4091765;28;20337;-69
2024/02/19 11:00:38;;;;;;;17.65;8.05;;;11.50;99.90;;;;;;4093186;28;20198;-72
2024/02/19 11:02:38;;;;;;;23.48;9.40;;;11.60;99.90;;;;;;4102137;28;20105;-68
2024/02/19 11:04:39;;;;;;;19.63;8.75;;;11.50;99.90;;;;;;4097094;28;20043;-70
2024/02/19 11:06:44;;;;;;;15.00;8.15;;;11.60;99.90;;;;;;4092355;28;20417;-68
2024/02/19 11:08:54;;;;;;;19.73;8.55;;;11.60;99.90;;;;;;4095891;28;20501;-69
2024/02/19 11:10:55;;;;;;;18.20;8.18;;;11.60;99.90;;;;;;4096639;28;20111;-70
2024/02/19 11:13:06;;;;;;;16.48;8.25;;;11.60;99.90;;;;;;4081097;28;20532;-70
2024/02/19 11:15:17;;;;;;;10.82;6.22;;;11.70;99.90;;;;;;4096311;28;20035;-71
2024/02/19 11:17:17;;;;;;;22.30;7.90;;;11.60;99.90;;;;;;4093732;28;20486;-72
2024/02/19 11:19:18;;;;;;;18.48;7.50;;;11.70;99.90;;;;;;4097328;28;20050;-72
2024/02/19 11:21:19;;;;;;;12.95;6.68;;;11.70;99.90;;;;;;4094941;28;20050;-72
2024/02/19 11:23:20;;;;;;;18.25;7.03;;;11.70;99.90;;;;;;4096401;28;20132;-72
2024/02/19 11:25:23;;;;;;;16.45;7.90;;;11.80;99.90;;;;;;4093084;28;20127;-72
2024/02/19 11:27:24;;;;;;;15.07;7.32;;;11.80;99.90;;;;;;4094553;28;20035;-72
2024/02/19 11:29:25;;;;;;;17.48;7.80;;;11.80;99.90;;;;;;4095758;28;20057;-72
2024/02/19 11:31:28;;;;;;;17.85;7.55;;;11.80;99.90;;;;;;4093985;28;20050;-71
2024/02/19 11:33:29;;;;;;;14.95;6.70;;;11.80;99.90;;;;;;4099177;28;20885;-72
2024/02/19 11:35:30;;;;;;;18.53;6.50;;;11.70;99.90;;;;;;4095879;28;20094;-72
2024/02/19 11:37:31;;;;;;;18.23;7.32;;;11.80;99.90;;;;;;4093397;28;20075;-72
2024/02/19 11:39:33;;;;;;;17.95;6.95;;;11.80;99.90;;;;;;4095140;28;20134;-72
2024/02/19 11:41:33;;;;;;;13.68;6.20;;;11.80;99.90;;;;;;4097542;28;20043;-72
2024/02/19 11:43:35;;;;;;;15.48;5.97;;;11.80;99.90;;;;;;4094134;28;20367;-69
2024/02/19 11:45:37;;;;;;;14.98;6.30;;;11.80;99.90;;;;;;4090776;28;20446;-71
2024/02/19 11:47:38;;;;;;;10.10;5.17;;;11.90;99.90;;;;;;4096480;28;20038;-70
2024/02/19 11:49:39;;;;;;;16.33;5.68;;;11.90;99.90;;;;;;4093705;28;20263;-71
2024/02/19 11:51:40;;;;;;;15.05;6.50;;;11.90;99.90;;;;;;4092871;28;20039;-71
2024/02/19 11:53:41;;;;;;;11.73;5.13;;;11.90;99.90;;;;;;4093578;28;20044;-70
2024/02/19 11:55:42;;;;;;;16.52;6.05;;;11.90;99.90;;;;;;4094040;28;20558;-70
2024/02/19 11:57:43;;;;;;;12.98;5.70;;;11.90;99.90;;;;;;4096248;28;20044;-70
2024/02/19 11:59:45;;;;;;;13.60;5.43;;;11.90;99.90;;;;;;4094045;28;20379;-71
2024/02/19 12:01:52;;;;;;;13.35;4.85;;;11.90;99.90;;;;;;4093239;28;20174;-70
2024/02/19 12:03:52;;;;;;;11.23;4.60;;;12.00;99.90;;;;;;4093982;28;20050;-70
2024/02/19 12:05:57;;;;;;;15.32;5.30;;;12.00;99.90;;;;;;4095291;28;20649;-70
2024/02/19 12:07:58;;;;;;;12.18;4.30;;;12.00;99.90;;;;;;4096606;28;20050;-70
2024/02/19 12:10:00;;;;;;;11.38;5.25;;;12.10;99.90;;;;;;4094326;28;20814;-70
2024/02/19 12:12:02;;;;;;;20.25;6.75;;;12.10;99.90;;;;;;4098147;28;20074;-70
2024/02/19 12:14:06;;;;;;;12.57;5.13;;;12.10;99.90;;;;;;4096832;28;20050;-70
2024/02/19 12:16:08;;;;;;;12.38;5.55;;;12.10;99.90;;;;;;4095011;28;20043;-70
2024/02/19 12:18:09;;;;;;;15.68;5.25;;;12.10;99.90;;;;;;4086241;28;20054;-70
2024/02/19 12:20:11;;;;;;;10.18;4.40;;;12.10;99.90;;;;;;4097098;28;20031;-70
2024/02/19 12:22:11;;;;;;;14.77;4.70;;;12.20;99.90;;;;;;4096637;28;20447;-70
2024/02/19 12:24:12;;;;;;;15.00;4.65;;;12.20;99.90;;;;;;4098027;28;20032;-71
2024/02/19 12:26:13;;;;;;;12.10;5.03;;;12.10;99.90;;;;;;4094734;28;20106;-71
2024/02/19 12:28:13;;;;;;;15.65;5.28;;;12.20;99.90;;;;;;4094683;28;20050;-71
2024/02/19 12:30:15;;;;;;;8.65;4.30;;;12.20;99.90;;;;;;4092549;28;20043;-72
2024/02/19 12:32:19;;;;;;;14.48;5.30;;;12.10;99.90;;;;;;4091922;28;20043;-71
2024/02/19 12:34:20;;;;;;;15.75;6.38;;;12.10;99.90;;;;;;4099091;28;20334;-69
2024/02/19 12:36:20;;;;;;;15.57;6.63;;;12.10;99.90;;;;;;4096514;28;20046;-69
2024/02/19 12:38:21;;;;;;;12.68;6.00;;;12.10;99.90;;;;;;4094201;28;20058;-70
2024/02/19 12:40:22;;;;;;;21.38;8.63;;;12.10;99.90;;;;;;4093636;28;20035;-69
2024/02/19 12:42:23;;;;;;;24.17;7.50;;;12.10;99.90;;;;;;4099924;28;20098;-70
2024/02/19 12:44:24;;;;;;;13.30;5.55;;;12.10;99.90;;;;;;4096570;28;20445;-70
2024/02/19 12:46:24;;;;;;;14.07;5.32;;;12.00;99.90;;;;;;4094628;28;20039;-70
2024/02/19 12:48:25;;;;;;;16.40;5.53;;;12.00;99.90;;;;;;4095554;28;20545;-70
2024/02/19 12:50:27;;;;;;;14.73;5.00;;;12.00;99.90;;;;;;4092976;28;20423;-70
2024/02/19 12:52:28;;;;;;;17.42;6.68;;;12.00;99.90;;;;;;4094466;28;20050;-69
2024/02/19 12:54:29;;;;;;;16.88;6.00;;;12.00;99.90;;;;;;4096346;28;20042;-69